Busk, Ukraine
Current Conditions -  °F | °C
As of 3:00 AM on Thursday 27 Nov 2014 (Local Time) from UKLL Reporting Station
Light Snow Light Snow  
Wind Chill: 18°   Ceiling: 800
Heat Index: 27°   Visibility: 4mi
Dew Point: 25°   Wind: 9mph
Humidity: 93%   Direction: 130°SE
Pressure: 30.21"   Gusts: NA
Location:  49.97°N, 24.63°E
Report Text: UKLL 270000Z 13004MPS 6000 -SN OVC008 M03/M04 Q1023 13450565 TEMPO OVC007
Loading
Personal Weather Stations






























Interactive Weather Map New forecast layout! Learn more

10-Day Weather Forecast

Advertisements
Track Severe Weather on mobile